Time;durP1;ratioP1;P1;durP2;ratioP2;P2;SDS_P1;SDS_P2;PMS_P1;PMS_P2;Temp;Humidity;BMP_temperature;BMP_pressure;BME280_temperature;BME280_humidity;BME280_pressure;Samples;Min_cycle;Max_cycle;Signal;HPM_P1;HPM_P2
2021/06/26 00:17:12;;;;;;;12.75;10.32;;;;;;;16.66;76.05;100131.66;2220166;40;21449;-87
2021/06/26 00:18:43;;;;;;;14.52;10.50;;;;;;;16.67;76.05;100133.34;2220099;40;20018;-89
2021/06/26 00:20:15;;;;;;;13.63;10.23;;;;;;;16.67;76.19;100126.06;2219851;40;20033;-87
2021/06/26 00:21:47;;;;;;;13.15;9.48;;;;;;;16.72;76.05;100124.69;2222639;40;20021;-89
2021/06/26 00:23:19;;;;;;;16.35;10.70;;;;;;;16.76;75.93;100123.28;2215893;40;20038;-88
2021/06/26 00:24:51;;;;;;;15.35;10.95;;;;;;;16.78;75.94;100123.97;2211001;40;20027;-88
2021/06/26 01:29:10;;;;;;;11.98;8.35;;;;;;;16.60;76.44;100079.25;2219900;40;21385;-90
2021/06/26 01:48:16;;;;;;;14.70;9.30;;;;;;;16.78;75.32;100096.97;2226111;40;19939;-84
2021/06/26 01:49:48;;;;;;;16.25;10.27;;;;;;;16.71;75.77;100098.72;2228969;40;20033;-86
2021/06/26 01:51:20;;;;;;;14.68;10.90;;;;;;;16.67;76.01;100098.25;2215928;40;20026;-86
2021/06/26 01:52:52;;;;;;;12.43;9.95;;;;;;;16.62;76.09;100092.56;2221532;40;20026;-85
2021/06/26 01:54:24;;;;;;;14.48;10.65;;;;;;;16.57;76.46;100093.09;2222782;40;20033;-84
2021/06/26 01:55:55;;;;;;;14.07;9.18;;;;;;;16.51;76.34;100099.25;2216864;40;20480;-84
2021/06/26 01:57:27;;;;;;;10.95;9.23;;;;;;;16.46;76.64;100090.84;2216375;40;20424;-85
2021/06/26 01:58:59;;;;;;;13.95;10.25;;;;;;;16.42;76.53;100089.53;2216171;40;20042;-85
2021/06/26 02:00:31;;;;;;;10.73;8.65;;;;;;;16.40;76.48;100080.78;2215920;40;20066;-88
2021/06/26 02:02:02;;;;;;;11.85;10.00;;;;;;;16.40;76.66;100091.59;2214874;40;20026;-85
2021/06/26 02:03:35;;;;;;;14.00;9.10;;;;;;;16.44;76.57;100079.38;2216540;40;20638;-86
2021/06/26 02:05:08;;;;;;;12.23;8.88;;;;;;;16.48;76.18;100084.25;2214929;40;20078;-86
2021/06/26 02:06:40;;;;;;;10.95;8.85;;;;;;;16.55;76.09;100088.91;2214907;40;20104;-86
2021/06/26 02:08:12;;;;;;;15.18;9.30;;;;;;;16.65;76.18;100086.81;2216260;40;20026;-83
2021/06/26 02:09:42;;;;;;;13.10;10.00;;;;;;;16.71;75.54;100082.53;2216414;40;20033;-83
2021/06/26 02:11:14;;;;;;;13.52;9.45;;;;;;;16.75;75.64;100079.28;2216406;40;20045;-84
2021/06/26 02:12:46;;;;;;;10.15;8.32;;;;;;;16.77;75.49;100069.13;2216906;40;20033;-88
2021/06/26 02:14:19;;;;;;;9.90;7.93;;;;;;;16.78;75.38;100067.28;2213221;40;20029;-88
2021/06/26 02:15:51;;;;;;;12.15;9.45;;;;;;;16.81;75.32;100078.53;2197977;40;20042;-88
2021/06/26 02:17:28;;;;;;;16.77;11.35;;;;;;;16.80;75.05;100084.94;2186304;40;20031;-87
2021/06/26 02:19:01;;;;;;;14.75;9.55;;;;;;;16.79;75.18;100077.06;2192331;40;20034;-89
2021/06/26 02:20:33;;;;;;;11.82;9.77;;;;;;;16.80;75.21;100076.84;2180063;40;20048;-86
2021/06/26 02:22:03;;;;;;;11.45;9.85;;;;;;;16.84;75.17;100082.72;2179485;41;20032;-84
2021/06/26 02:23:39;;;;;;;13.50;11.45;;;;;;;16.81;74.99;100083.09;2189782;40;20045;-83
2021/06/26 02:25:12;;;;;;;11.32;10.13;;;;;;;16.78;75.30;100080.78;2196308;40;20109;-85
2021/06/26 02:26:44;;;;;;;15.30;11.38;;;;;;;16.77;75.47;100088.00;2195346;40;20094;-84
2021/06/26 02:28:17;;;;;;;14.18;11.63;;;;;;;16.75;75.79;100084.69;2197414;40;20508;-87
2021/06/26 02:29:49;;;;;;;14.38;11.93;;;;;;;16.72;75.86;100098.53;2197608;40;20015;-86
2021/06/26 02:31:21;;;;;;;18.55;11.70;;;;;;;16.69;76.06;100091.66;2208743;40;20032;-89
2021/06/26 02:32:53;;;;;;;15.02;12.38;;;;;;;16.68;76.45;100095.38;2216685;40;20033;-86
2021/06/26 02:34:26;;;;;;;15.93;11.88;;;;;;;16.69;76.57;100102.44;2216512;40;20022;-85
2021/06/26 02:35:58;;;;;;;14.15;10.18;;;;;;;16.69;76.91;100098.91;2215797;40;20082;-85
2021/06/26 02:37:29;;;;;;;11.02;9.73;;;;;;;16.70;76.69;100100.56;2216384;40;20535;-84
2021/06/26 02:39:01;;;;;;;13.88;12.15;;;;;;;16.71;76.87;100102.25;2216538;40;20030;-86
2021/06/26 02:40:32;;;;;;;14.18;10.82;;;;;;;16.71;76.75;100101.44;2216677;40;20022;-87
2021/06/26 02:42:04;;;;;;;12.90;10.45;;;;;;;16.71;76.89;100099.56;2216322;40;20041;-85
2021/06/26 02:43:36;;;;;;;13.13;9.93;;;;;;;16.74;77.23;100103.75;2214599;40;20033;-85
2021/06/26 02:45:10;;;;;;;14.50;11.40;;;;;;;16.74;77.22;100103.75;2215886;40;20026;-83
2021/06/26 02:46:40;;;;;;;15.55;11.18;;;;;;;16.74;76.84;100101.03;2216261;40;20037;-82
2021/06/26 02:48:12;;;;;;;15.77;10.50;;;;;;;16.75;77.08;100108.13;2216178;40;20018;-86
2021/06/26 02:49:46;;;;;;;11.55;9.98;;;;;;;16.74;77.25;100104.59;2212827;40;20046;-86
2021/06/26 02:51:16;;;;;;;10.90;8.65;;;;;;;16.76;77.27;100094.47;2215557;40;20033;-86
2021/06/26 02:52:48;;;;;;;14.02;10.95;;;;;;;16.78;77.15;100095.09;2215128;40;20021;-86
2021/06/26 02:54:20;;;;;;;14.25;11.55;;;;;;;16.78;77.16;100089.69;2216706;40;20018;-83
2021/06/26 02:55:55;;;;;;;14.85;10.18;;;;;;;16.78;77.05;100094.25;2216288;40;20476;-85
2021/06/26 02:57:27;;;;;;;14.60;11.00;;;;;;;16.77;77.00;100093.41;2216349;40;20037;-84
2021/06/26 02:58:59;;;;;;;12.30;10.52;;;;;;;16.77;77.31;100095.28;2216207;40;20030;-85
2021/06/26 03:00:30;;;;;;;15.75;11.38;;;;;;;16.76;77.43;100080.97;2216381;40;20038;-85
2021/06/26 03:02:02;;;;;;;13.50;10.43;;;;;;;16.76;77.47;100094.47;2216432;40;20022;-85
2021/06/26 03:03:33;;;;;;;12.77;9.90;;;;;;;16.77;77.54;100082.63;2216270;40;20018;-87
2021/06/26 03:05:07;;;;;;;14.85;12.85;;;;;;;16.78;77.50;100081.59;2215881;40;20477;-84
2021/06/26 03:06:39;;;;;;;13.20;10.27;;;;;;;16.79;77.56;100077.88;2215984;40;20192;-87
2021/06/26 03:08:11;;;;;;;12.20;10.90;;;;;;;16.83;77.49;100075.63;2216027;40;20030;-87
2021/06/26 03:09:43;;;;;;;33.28;11.68;;;;;;;16.83;77.63;100083.75;2214460;40;20027;-85
2021/06/26 03:11:16;;;;;;;12.07;10.50;;;;;;;16.84;77.41;100077.31;2216126;40;20441;-86
2021/06/26 03:12:47;;;;;;;13.20;10.00;;;;;;;16.87;77.63;100084.19;2216588;40;20649;-86
2021/06/26 03:14:19;;;;;;;12.93;9.75;;;;;;;16.88;77.16;100081.34;2203155;40;20031;-85
2021/06/26 03:15:52;;;;;;;14.80;12.63;;;;;;;16.89;77.16;100082.16;2211025;40;20029;-86
2021/06/26 03:17:24;;;;;;;12.45;9.20;;;;;;;16.84;77.16;100080.03;2216088;40;20614;-87
2021/06/26 03:18:56;;;;;;;14.73;9.93;;;;;;;16.85;77.18;100073.59;2215038;40;20081;-86
2021/06/26 03:20:29;;;;;;;14.40;11.30;;;;;;;16.86;77.09;100072.56;2216222;40;20038;-86
2021/06/26 03:22:01;;;;;;;15.95;11.07;;;;;;;16.83;76.86;100071.09;2214530;40;20061;-86
2021/06/26 03:23:33;;;;;;;13.88;10.98;;;;;;;16.88;76.89;100078.63;2216087;40;20049;-85
2021/06/26 03:25:05;;;;;;;13.52;10.27;;;;;;;16.89;76.76;100080.31;2216423;40;20053;-86
2021/06/26 03:26:37;;;;;;;14.40;12.55;;;;;;;16.91;77.03;100089.03;2215815;40;20654;-84
2021/06/26 03:28:09;;;;;;;13.75;11.30;;;;;;;16.90;77.39;100087.41;2215651;40;20038;-85
2021/06/26 03:29:41;;;;;;;13.80;10.55;;;;;;;16.89;77.34;100080.31;2214240;40;20046;-86
2021/06/26 03:31:13;;;;;;;11.90;10.48;;;;;;;16.88;77.21;100089.44;2215927;40;20739;-87
2021/06/26 03:32:44;;;;;;;11.85;10.52;;;;;;;16.87;77.35;100076.09;2215973;40;20034;-86
2021/06/26 03:34:16;;;;;;;11.30;10.10;;;;;;;16.88;77.62;100075.94;2215977;40;20143;-85
2021/06/26 03:35:48;;;;;;;16.77;12.50;;;;;;;16.89;77.34;100076.75;2215670;40;20397;-86
2021/06/26 03:37:20;;;;;;;21.88;13.50;;;;;;;16.86;77.40;100086.06;2215863;40;20038;-84
2021/06/26 03:38:52;;;;;;;21.23;13.57;;;;;;;16.85;77.34;100079.00;2216032;40;20025;-85
2021/06/26 03:40:23;;;;;;;14.13;12.27;;;;;;;16.79;77.73;100082.44;2215954;40;20417;-84
2021/06/26 03:41:54;;;;;;;16.40;10.93;;;;;;;16.80;77.74;100070.63;2215924;40;20034;-86
2021/06/26 03:43:26;;;;;;;13.85;12.38;;;;;;;16.77;77.86;100079.91;2215901;40;20042;-84
2021/06/26 03:44:58;;;;;;;14.10;11.52;;;;;;;16.73;77.74;100083.16;2215959;40;20041;-85
2021/06/26 03:46:30;;;;;;;11.73;9.90;;;;;;;16.76;77.55;100080.09;2203294;40;20453;-86
2021/06/26 03:48:04;;;;;;;13.65;11.38;;;;;;;16.81;77.40;100080.41;2213617;40;20025;-87
2021/06/26 03:49:38;;;;;;;13.60;9.60;;;;;;;16.86;77.57;100087.94;2215606;40;20029;-84
2021/06/26 03:51:11;;;;;;;13.75;11.23;;;;;;;16.86;77.05;100094.19;2215548;40;20069;-85
2021/06/26 03:52:43;;;;;;;13.02;11.32;;;;;;;16.84;77.17;100093.50;2215818;40;20033;-85
2021/06/26 03:54:14;;;;;;;18.15;12.90;;;;;;;16.84;77.62;100096.22;2215669;40;20689;-84
2021/06/26 03:55:52;;;;;;;15.30;12.73;;;;;;;16.83;77.40;100097.25;2215907;40;20030;-85
2021/06/26 03:57:24;;;;;;;14.90;12.77;;;;;;;16.80;77.84;100093.06;2215795;40;20021;-86
2021/06/26 03:58:55;;;;;;;14.60;11.20;;;;;;;16.86;77.79;100096.88;2215624;40;20022;-85
2021/06/26 04:00:27;;;;;;;13.13;11.63;;;;;;;16.87;77.76;100087.75;2215631;40;20567;-85
2021/06/26 04:01:58;;;;;;;16.42;12.27;;;;;;;16.87;77.56;100090.47;2215662;40;20026;-85
2021/06/26 04:03:31;;;;;;;15.85;11.50;;;;;;;16.85;77.79;100084.41;2216567;40;20026;-87
2021/06/26 04:05:03;;;;;;;15.95;11.40;;;;;;;16.85;77.49;100095.19;2215576;40;20029;-87
2021/06/26 04:06:36;;;;;;;14.27;11.88;;;;;;;16.87;77.75;100092.31;2211680;40;20033;-86
2021/06/26 04:08:08;;;;;;;13.50;11.68;;;;;;;16.88;77.65;100094.84;2216016;40;20018;-86
2021/06/26 04:09:40;;;;;;;13.90;9.82;;;;;;;16.89;77.46;100096.53;2216384;40;20015;-88
2021/06/26 04:11:12;;;;;;;13.35;11.38;;;;;;;16.91;77.65;100094.44;2199283;40;20253;-86
2021/06/26 04:12:44;;;;;;;14.07;11.43;;;;;;;16.94;77.69;100098.69;2214827;40;20022;-87
2021/06/26 04:14:16;;;;;;;13.00;10.65;;;;;;;16.95;77.54;100095.78;2215654;40;20047;-87
2021/06/26 04:15:48;;;;;;;11.55;9.48;;;;;;;16.95;77.65;100100.38;2215637;40;20480;-85
2021/06/26 04:17:19;;;;;;;19.60;13.32;;;;;;;16.96;77.49;100096.63;2202387;40;20062;-86
2021/06/26 04:18:51;;;;;;;11.85;10.18;;;;;;;16.92;77.67;100093.44;2204751;40;20026;-85
2021/06/26 04:20:24;;;;;;;13.80;10.45;;;;;;;16.91;77.76;100094.44;2208978;40;20038;-86
2021/06/26 04:21:57;;;;;;;16.67;10.05;;;;;;;16.93;77.64;100095.13;2215059;40;20025;-87
2021/06/26 04:23:29;;;;;;;18.80;12.20;;;;;;;16.95;77.61;100100.38;2202761;40;20058;-85
2021/06/26 04:25:01;;;;;;;12.77;9.93;;;;;;;16.95;77.44;100098.50;2214352;40;20599;-84
2021/06/26 04:26:31;;;;;;;19.05;12.10;;;;;;;16.93;77.45;100097.84;2215894;40;20037;-86
2021/06/26 04:28:07;;;;;;;13.80;11.00;;;;;;;16.93;77.63;100102.38;2215725;40;20018;-88
2021/06/26 04:29:39;;;;;;;14.02;10.32;;;;;;;16.89;77.64;100104.63;2216006;40;20045;-88
2021/06/26 04:31:11;;;;;;;13.15;9.95;;;;;;;16.94;77.53;100104.09;2206405;40;20022;-88
2021/06/26 04:32:43;;;;;;;17.95;12.75;;;;;;;16.93;77.33;100103.25;2203618;40;20041;-87
2021/06/26 04:34:15;;;;;;;20.90;10.65;;;;;;;16.96;77.37;100107.41;2196786;40;20657;-86
2021/06/26 04:35:47;;;;;;;17.67;12.55;;;;;;;16.92;77.37;100098.81;2196475;40;20042;-85
2021/06/26 04:37:33;;;;;;;12.88;9.85;;;;;;;16.86;77.62;100091.47;2202133;40;20042;-86
2021/06/26 04:39:13;;;;;;;14.75;11.30;;;;;;;16.84;77.75;100098.91;2213693;40;20116;-87
2021/06/26 04:40:44;;;;;;;12.10;10.70;;;;;;;16.86;77.39;100098.75;2215879;40;20038;-85
2021/06/26 04:42:16;;;;;;;16.67;10.50;;;;;;;16.89;77.42;100099.22;2214963;40;20022;-85
2021/06/26 04:43:48;;;;;;;14.18;11.13;;;;;;;16.90;77.55;100098.19;2202459;40;20038;-85
2021/06/26 04:45:20;;;;;;;15.48;11.27;;;;;;;16.89;77.45;100101.06;2202879;40;20090;-86
2021/06/26 04:46:52;;;;;;;11.88;10.48;;;;;;;16.88;77.33;100100.22;2202982;40;20758;-87
2021/06/26 04:48:25;;;;;;;18.23;13.60;;;;;;;16.90;77.27;100095.50;2202788;40;20035;-86
2021/06/26 04:49:55;;;;;;;17.85;12.82;;;;;;;16.81;77.51;100094.72;2202260;40;20043;-85
2021/06/26 04:51:27;;;;;;;17.85;12.75;;;;;;;16.74;77.79;100101.91;2201914;40;20740;-88
2021/06/26 04:53:00;;;;;;;17.50;12.82;;;;;;;16.75;77.88;100100.03;2179425;41;20037;-88
2021/06/26 04:54:32;;;;;;;15.73;11.68;;;;;;;16.75;77.97;100105.41;2196376;40;20040;-88
2021/06/26 04:56:04;;;;;;;12.98;10.27;;;;;;;16.79;78.01;100095.94;2191124;40;20035;-89
2021/06/26 04:57:36;;;;;;;16.23;13.30;;;;;;;16.84;77.74;100102.47;2184981;40;20046;-88
2021/06/26 04:59:07;;;;;;;15.77;12.77;;;;;;;16.83;77.27;100102.63;2191342;40;20035;-89
2021/06/26 05:00:39;;;;;;;16.02;12.25;;;;;;;16.77;77.70;100114.19;2192396;40;20032;-89
2021/06/26 05:02:11;;;;;;;12.85;10.30;;;;;;;16.81;77.97;100099.31;2178012;41;20033;-90
2021/06/26 05:03:43;;;;;;;11.95;9.38;;;;;;;16.91;77.50;100105.25;2179779;40;20040;-87
2021/06/26 05:05:15;;;;;;;13.82;12.32;;;;;;;16.97;77.25;100103.69;2184391;40;20035;-89
2021/06/26 05:06:47;;;;;;;12.57;10.68;;;;;;;17.02;77.17;100097.75;2185599;40;20024;-83
2021/06/26 05:08:21;;;;;;;16.38;12.93;;;;;;;17.07;76.86;100095.34;2184455;40;20039;-84
2021/06/26 05:09:53;;;;;;;15.02;10.52;;;;;;;17.06;76.76;100097.19;2185553;40;20052;-85
2021/06/26 05:11:24;;;;;;;11.02;9.45;;;;;;;17.09;76.78;100096.81;2193352;40;20034;-82
2021/06/26 05:12:56;;;;;;;11.27;9.00;;;;;;;17.14;76.89;100102.50;2203302;40;20043;-85
2021/06/26 05:14:28;;;;;;;12.63;11.20;;;;;;;17.16;76.51;100096.91;2207958;40;20030;-84
2021/06/26 05:16:00;;;;;;;16.92;12.50;;;;;;;17.18;76.63;100102.13;2203530;40;20079;-82
2021/06/26 05:17:31;;;;;;;11.52;9.60;;;;;;;17.14;76.49;100107.06;2210228;40;20031;-83
2021/06/26 05:19:03;;;;;;;14.32;10.82;;;;;;;17.16;76.63;100105.03;2203609;40;20611;-85
2021/06/26 05:20:35;;;;;;;12.95;11.38;;;;;;;17.16;76.40;100107.72;2204381;40;20035;-86
2021/06/26 05:22:07;;;;;;;13.63;9.52;;;;;;;17.19;76.34;100112.75;2192402;40;20028;-90
2021/06/26 05:23:41;;;;;;;13.65;10.60;;;;;;;17.25;76.19;100106.59;2192442;40;20035;-88
2021/06/26 05:25:12;;;;;;;13.05;10.95;;;;;;;17.28;76.34;100108.94;2191735;40;20042;-86
2021/06/26 05:26:44;;;;;;;12.32;9.00;;;;;;;17.34;76.15;100114.59;2175725;41;20040;-87
2021/06/26 05:28:15;;;;;;;13.65;9.18;;;;;;;17.38;75.88;100126.72;2173740;41;20081;-83
2021/06/26 05:29:48;;;;;;;16.58;10.38;;;;;;;17.36;75.79;100107.97;2173469;41;20074;-85
2021/06/26 05:31:20;;;;;;;12.88;10.30;;;;;;;17.36;75.89;100113.38;2173658;41;20107;-84
2021/06/26 05:32:50;;;;;;;11.85;9.68;;;;;;;17.37;75.85;100116.94;2184530;40;20072;-85
2021/06/26 05:34:22;;;;;;;12.27;9.05;;;;;;;17.37;75.84;100119.66;2191492;40;20553;-86
2021/06/26 05:35:54;;;;;;;12.75;9.75;;;;;;;17.35;75.80;100125.22;2191519;40;20032;-86
2021/06/26 05:37:25;;;;;;;13.57;10.38;;;;;;;17.36;75.76;100116.09;2197702;40;20031;-85
2021/06/26 05:39:00;;;;;;;14.32;9.50;;;;;;;17.33;75.87;100124.59;2209855;40;20655;-85
2021/06/26 05:40:32;;;;;;;10.55;9.02;;;;;;;17.35;75.88;100116.28;2209719;40;20666;-84
2021/06/26 05:42:05;;;;;;;11.15;9.40;;;;;;;17.37;75.50;100111.53;2197618;40;20024;-85
2021/06/26 05:43:36;;;;;;;13.88;11.52;;;;;;;17.38;75.50;100113.22;2209963;40;20033;-84
2021/06/26 05:45:09;;;;;;;12.40;10.45;;;;;;;17.36;75.67;100113.38;2202426;40;20038;-86
2021/06/26 05:46:40;;;;;;;10.73;9.35;;;;;;;17.35;75.76;100114.41;2154654;40;20042;-85
2021/06/26 05:48:12;;;;;;;10.50;9.25;;;;;;;17.39;75.70;100117.56;2198831;40;20031;-82
2021/06/26 05:49:45;;;;;;;13.73;11.07;;;;;;;17.44;75.48;100120.56;2203363;40;20031;-86
2021/06/26 05:51:18;;;;;;;11.73;9.85;;;;;;;17.46;75.54;100118.53;2191556;40;20044;-85
2021/06/26 05:52:51;;;;;;;10.98;9.40;;;;;;;17.52;75.19;100120.47;2189626;40;20040;-85
2021/06/26 05:54:26;;;;;;;14.32;11.00;;;;;;;17.49;75.30;100122.69;2191815;40;20020;-88
2021/06/26 05:55:59;;;;;;;12.35;8.80;;;;;;;17.48;75.31;100127.25;2185591;40;20532;-87
2021/06/26 05:57:30;;;;;;;13.15;10.10;;;;;;;17.53;75.53;100134.78;2150146;41;20045;-86
2021/06/26 05:59:01;;;;;;;15.13;10.55;;;;;;;17.57;75.18;100128.81;2161944;41;20057;-86
2021/06/26 06:00:34;;;;;;;11.10;8.43;;;;;;;17.67;74.93;100131.25;2156136;41;20023;-87
2021/06/26 06:02:09;;;;;;;10.68;8.63;;;;;;;17.80;74.58;100118.91;2157781;41;20022;-87
2021/06/26 06:03:41;;;;;;;14.02;9.20;;;;;;;17.93;74.28;100122.59;2162025;41;20595;-86
2021/06/26 06:05:14;;;;;;;14.52;10.52;;;;;;;18.03;74.10;100121.50;2156065;41;20039;-85
2021/06/26 06:06:46;;;;;;;13.35;9.50;;;;;;;18.11;73.74;100125.91;2144355;41;20043;-88
2021/06/26 06:08:17;;;;;;;13.52;10.30;;;;;;;18.16;73.39;100127.03;2144469;41;20081;-88
2021/06/26 06:09:50;;;;;;;10.73;9.32;;;;;;;18.18;73.43;100126.84;2164875;41;20018;-84
2021/06/26 06:11:22;;;;;;;13.52;10.77;;;;;;;18.18;72.96;100124.16;2173889;41;20029;-86
2021/06/26 06:12:53;;;;;;;12.10;9.95;;;;;;;18.27;72.93;100119.44;2173848;41;20029;-86
2021/06/26 06:14:26;;;;;;;9.85;8.10;;;;;;;18.37;72.69;100119.94;2170002;41;20029;-86
2021/06/26 06:15:58;;;;;;;14.07;10.38;;;;;;;18.48;72.52;100123.97;2161692;41;20042;-85
2021/06/26 06:17:30;;;;;;;13.70;11.02;;;;;;;18.49;72.25;100129.22;2153416;41;20023;-84
2021/06/26 06:19:02;;;;;;;16.25;11.73;;;;;;;18.39;72.11;100117.88;2144336;41;20047;-85
2021/06/26 06:20:35;;;;;;;12.50;9.30;;;;;;;18.38;72.18;100116.19;2144745;41;20031;-86
2021/06/26 06:22:08;;;;;;;9.60;7.97;;;;;;;18.51;72.10;100116.34;2144860;41;20035;-86
2021/06/26 06:23:40;;;;;;;10.80;8.10;;;;;;;18.68;71.81;100118.75;2152083;41;20030;-85
2021/06/26 06:25:14;;;;;;;11.30;8.32;;;;;;;18.81;71.01;100113.41;2174941;40;20033;-85
2021/06/26 06:26:44;;;;;;;11.52;9.02;;;;;;;18.93;70.50;100121.03;2186950;40;20521;-85
2021/06/26 06:29:18;;;;;;;11.90;8.55;;;;;;;19.04;70.54;100128.63;2216095;40;20561;-88
2021/06/26 06:30:50;;;;;;;14.35;10.50;;;;;;;19.17;69.93;100114.31;2220028;40;20041;-85
2021/06/26 06:32:22;;;;;;;14.70;11.88;;;;;;;19.06;69.14;100110.28;2207518;40;20661;-85
2021/06/26 06:33:54;;;;;;;22.92;10.82;;;;;;;18.98;69.04;100121.28;2203287;40;20030;-87
2021/06/26 06:35:25;;;;;;;13.35;10.23;;;;;;;19.04;68.86;100115.06;2234816;39;20013;-85
2021/06/26 06:36:57;;;;;;;15.35;10.23;;;;;;;19.13;68.83;100113.88;2239232;39;20040;-85
2021/06/26 06:38:29;;;;;;;15.48;11.32;;;;;;;19.18;68.75;100114.09;2233059;39;20037;-85
2021/06/26 06:40:01;;;;;;;13.35;10.75;;;;;;;19.17;68.28;100115.16;2233012;39;20040;-85
2021/06/26 06:41:32;;;;;;;11.80;10.20;;;;;;;19.31;68.30;100123.34;2233089;39;20033;-86
2021/06/26 06:43:04;;;;;;;17.15;9.27;;;;;;;19.46;67.81;100115.91;2232632;39;20025;-84
2021/06/26 06:44:38;;;;;;;12.25;8.77;;;;;;;19.64;67.59;100125.38;2232953;39;20032;-85
2021/06/26 06:46:10;;;;;;;13.35;10.15;;;;;;;19.73;67.14;100102.47;2233429;39;20040;-85
2021/06/26 06:47:42;;;;;;;12.13;9.07;;;;;;;19.74;66.77;100109.53;2233194;39;20025;-88
2021/06/26 06:49:14;;;;;;;12.52;9.93;;;;;;;19.80;66.64;100108.75;2231771;39;20500;-87
2021/06/26 06:50:46;;;;;;;12.18;10.15;;;;;;;19.98;66.29;100118.22;2239069;39;20021;-87
2021/06/26 06:52:17;;;;;;;17.30;10.30;;;;;;;20.02;65.39;100110.50;2220430;40;20030;-88
2021/06/26 06:53:49;;;;;;;16.25;12.38;;;;;;;20.05;65.36;100116.34;2209869;40;20026;-86
2021/06/26 06:55:20;;;;;;;14.60;12.18;;;;;;;20.17;64.01;100110.31;2208243;40;20034;-89
2021/06/26 06:56:52;;;;;;;14.02;12.18;;;;;;;20.07;64.42;100114.25;2210305;40;20027;-87
2021/06/26 06:58:24;;;;;;;12.00;9.35;;;;;;;20.09;64.62;100112.19;2207498;40;20038;-83
2021/06/26 06:59:57;;;;;;;11.93;9.05;;;;;;;20.29;64.12;100111.38;2211484;40;20022;-82
2021/06/26 07:01:28;;;;;;;16.67;9.55;;;;;;;20.45;63.94;100110.13;2213914;40;20030;-87
2021/06/26 07:03:00;;;;;;;12.27;9.25;;;;;;;20.57;63.75;100102.19;2196234;40;20032;-83
2021/06/26 07:04:31;;;;;;;14.20;9.90;;;;;;;20.59;63.23;100108.25;2195799;40;20039;-82
2021/06/26 07:06:03;;;;;;;11.02;9.45;;;;;;;20.56;61.97;100114.09;2188947;40;20048;-82
2021/06/26 07:07:34;;;;;;;12.55;8.95;;;;;;;20.49;61.86;100107.84;2193475;40;20034;-83
2021/06/26 07:09:06;;;;;;;10.00;8.68;;;;;;;20.51;61.40;100103.88;2195455;40;20019;-82
2021/06/26 07:10:38;;;;;;;10.57;8.32;;;;;;;20.57;60.95;100097.59;2195388;40;20059;-85
2021/06/26 07:12:11;;;;;;;16.10;10.07;;;;;;;20.62;60.48;100104.28;2201339;40;20026;-82
2021/06/26 07:13:42;;;;;;;11.25;9.18;;;;;;;20.62;60.97;100099.69;2213520;40;20039;-87
2021/06/26 07:15:16;;;;;;;10.65;8.63;;;;;;;20.80;60.39;100109.09;2207782;40;20140;-90
2021/06/26 07:16:48;;;;;;;13.45;8.35;;;;;;;20.94;60.12;100108.03;2201967;40;20023;-87
2021/06/26 07:18:22;;;;;;;11.82;10.30;;;;;;;21.00;59.69;100107.19;2189274;40;20038;-89
2021/06/26 07:19:54;;;;;;;11.23;9.70;;;;;;;21.13;59.50;100106.31;2190409;40;20052;-88
2021/06/26 07:21:26;;;;;;;12.55;8.98;;;;;;;21.19;59.51;100101.91;2189500;40;20035;-90
2021/06/26 07:22:58;;;;;;;10.50;8.98;;;;;;;21.17;60.01;100098.56;2183613;40;20094;-86
2021/06/26 07:24:30;;;;;;;12.02;9.82;;;;;;;21.17;60.03;100099.41;2183570;40;20670;-88
2021/06/26 07:26:01;;;;;;;11.27;8.60;;;;;;;21.22;60.08;100100.63;2177594;40;20584;-84
2021/06/26 07:27:33;;;;;;;11.32;9.30;;;;;;;21.24;59.46;100096.69;2183274;40;20047;-85
2021/06/26 07:29:06;;;;;;;11.18;8.75;;;;;;;21.19;59.66;100091.03;2182576;40;20582;-84
2021/06/26 07:30:39;;;;;;;12.18;8.15;;;;;;;21.19;59.55;100096.47;2177074;40;20065;-86
2021/06/26 07:32:10;;;;;;;10.48;8.05;;;;;;;21.24;59.24;100093.13;2178955;40;20625;-84
2021/06/26 07:33:42;;;;;;;8.80;7.55;;;;;;;21.39;58.97;100095.56;2176053;40;20021;-85
2021/06/26 07:35:16;;;;;;;10.90;7.78;;;;;;;21.51;58.78;100091.13;2176775;40;20066;-87
2021/06/26 07:36:48;;;;;;;11.32;9.52;;;;;;;21.58;58.62;100089.25;2183016;40;20089;-85
2021/06/26 07:38:22;;;;;;;10.98;9.25;;;;;;;21.62;58.57;100087.78;2191508;40;20036;-86
2021/06/26 07:39:54;;;;;;;12.27;9.07;;;;;;;21.62;58.34;100087.78;2211326;40;20042;-85
2021/06/26 07:41:25;;;;;;;9.45;8.38;;;;;;;21.76;58.54;100084.97;2209824;40;20033;-86
2021/06/26 07:42:57;;;;;;;12.15;9.23;;;;;;;21.89;57.78;100075.91;2212156;40;20500;-84
2021/06/26 07:44:29;;;;;;;9.38;8.20;;;;;;;21.93;58.01;100082.56;2215243;40;20018;-86
2021/06/26 07:46:03;;;;;;;12.70;8.43;;;;;;;22.13;57.59;100083.28;2203380;40;20023;-82
2021/06/26 07:47:35;;;;;;;12.10;8.00;;;;;;;22.37;56.67;100077.25;2197809;40;20035;-82
2021/06/26 07:49:08;;;;;;;8.23;7.03;;;;;;;22.48;56.13;100083.88;2197595;40;20027;-82
2021/06/26 07:50:41;;;;;;;9.35;7.38;;;;;;;22.69;55.39;100072.59;2202774;40;20034;-83
2021/06/26 07:52:17;;;;;;;8.23;6.78;;;;;;;22.82;55.21;100077.06;2202973;40;20027;-84
2021/06/26 07:53:52;;;;;;;8.65;6.97;;;;;;;22.85;54.70;100082.06;2202295;40;20035;-82
2021/06/26 07:55:25;;;;;;;9.60;7.07;;;;;;;22.87;54.06;100074.50;2202509;40;20027;-84
2021/06/26 07:57:06;;;;;;;9.45;6.90;;;;;;;22.90;53.04;100074.03;2202938;40;20031;-86
2021/06/26 07:58:44;;;;;;;9.80;7.85;;;;;;;22.86;52.93;100080.16;2202810;40;20050;-84
2021/06/26 08:00:18;;;;;;;9.43;6.90;;;;;;;22.73;53.27;100070.25;2202171;40;20039;-86
2021/06/26 08:01:50;;;;;;;8.98;6.90;;;;;;;22.72;53.04;100063.94;2213458;40;20154;-84
2021/06/26 08:03:23;;;;;;;9.27;6.68;;;;;;;22.70;53.56;100059.78;2214076;40;20045;-85
2021/06/26 08:04:55;;;;;;;9.57;7.28;;;;;;;22.54;53.37;100059.31;2214274;40;20029;-84
2021/06/26 08:06:27;;;;;;;12.27;7.55;;;;;;;22.49;51.95;100064.59;2216475;40;20037;-86
2021/06/26 08:07:59;;;;;;;8.60;6.82;;;;;;;22.57;51.53;100067.03;2220616;40;20132;-86
2021/06/26 08:09:30;;;;;;;11.20;9.23;;;;;;;22.65;51.11;100062.38;2220604;40;20034;-85
2021/06/26 08:11:02;;;;;;;10.43;7.10;;;;;;;22.79;51.38;100058.44;2222383;40;20044;-83
2021/06/26 08:12:34;;;;;;;6.85;5.80;;;;;;;23.09;50.77;100054.97;2215556;40;20557;-85
2021/06/26 08:14:05;;;;;;;8.98;6.10;;;;;;;23.41;50.39;100051.25;2205488;40;20019;-85
2021/06/26 08:15:38;;;;;;;8.10;6.10;;;;;;;23.74;50.00;100045.34;2209594;40;20022;-84
2021/06/26 08:17:12;;;;;;;11.73;7.18;;;;;;;23.96;50.22;100044.84;2197087;40;20031;-82
2021/06/26 08:18:44;;;;;;;7.70;6.07;;;;;;;24.12;49.94;100044.16;2205671;40;20038;-83
2021/06/26 08:20:16;;;;;;;8.85;6.25;;;;;;;24.27;49.85;100043.72;2216920;40;20041;-85
2021/06/26 08:21:47;;;;;;;7.95;6.30;;;;;;;24.35;49.28;100039.81;2221193;40;20096;-83
2021/06/26 08:23:19;;;;;;;10.80;6.95;;;;;;;24.31;49.02;100046.81;2221575;40;20033;-82
2021/06/26 08:24:50;;;;;;;11.52;7.50;;;;;;;24.18;48.74;100045.13;2221992;40;20022;-84
2021/06/26 08:26:22;;;;;;;8.57;5.95;;;;;;;24.16;48.61;100041.81;2214533;40;20276;-83
2021/06/26 08:27:53;;;;;;;7.50;5.70;;;;;;;24.19;47.59;100045.97;2214484;40;20461;-84
2021/06/26 08:29:25;;;;;;;6.60;5.60;;;;;;;24.17;46.99;100034.47;2218212;40;20026;-84
2021/06/26 08:30:56;;;;;;;9.52;5.65;;;;;;;24.16;46.31;100038.25;2228554;40;20092;-84
2021/06/26 08:32:30;;;;;;;8.93;6.47;;;;;;;24.05;46.55;100038.00;2227814;40;20025;-85
2021/06/26 08:34:01;;;;;;;10.48;7.53;;;;;;;23.92;46.59;100032.69;2228425;40;20084;-84
2021/06/26 08:35:34;;;;;;;9.55;6.90;;;;;;;23.78;46.26;100038.38;2229485;39;21088;-85
2021/06/26 08:37:05;;;;;;;10.32;7.00;;;;;;;23.63;46.78;100035.22;2234511;39;20057;-86
2021/06/26 08:38:39;;;;;;;9.07;6.38;;;;;;;23.63;46.85;100030.59;2234085;40;20029;-86
2021/06/26 08:40:12;;;;;;;7.72;6.43;;;;;;;23.82;46.75;100030.56;2234546;39;20600;-83